DRBK1: Arkansas River, Derby, KS

Data processed at Mon Dec 09 2019 23:55


All information presented herein is the property of the government of the United States of America and may be revised or deleted at any time without prior notice.
Dissemination of this information without the expressed written consent of the Public Affairs Office, Tulsa District U.S. Army Corps of Engineers is strictly prohibited.
These data are gathered electronically and, as presented, have not undergone any form of quality control. These data are not guaranteed to be valid or correct.
Go to home page.
Go to station list.
Go to home page.

Upstream stations:

Downstream station:
Previous Day
Next Day
Current Day
    
SHEF ID:       DRBK1     ARKANSAS R AT DERBY, KS
STATION TYPE:  
Regulating: Stage =    12.00, Flow =    24335

               PRECIP     STAGE  RIV-FLOW  BAT-LOAD
                   in        ft       cfs      volt
              Ccp-Rev   Ccp-Rev   Ccp-Rev   Ccp-Rev
(US/Central)
12/09 00:00      ----      1.67       605     12.57
12/09 01:00      ----      1.67       605     12.57
12/09 02:00      ----      1.67       605     12.49
12/09 03:00      ----      1.66       598     12.49
12/09 04:00      ----      1.65       591     12.49
12/09 05:00      ----      1.66       598     12.49
12/09 06:00      ----      1.65       591     12.41
12/09 07:00      ----      1.63       576     12.49
12/09 08:00      ----      1.62       569     12.49
12/09 09:00      ----      1.63       576     12.49
12/09 10:00      ----      1.63       576     12.57
12/09 11:00      ----      1.62       569     12.89
12/09 12:00      ----      1.63       576     13.29
12/09 13:00      ----      1.64       583     13.29
12/09 14:00      ----      1.66       598     13.29
12/09 15:00      ----      1.68       613     13.29
12/09 16:00      ----      1.67       605     13.44
12/09 17:00      ----      1.66       598     12.97
12/09 18:00      ----      1.62       569     12.81
12/09 19:00      ----      1.56       526     12.73
12/09 20:00      ----      1.57       533     12.73
12/09 21:00      ----      1.65       591     12.65
12/09 22:00      ----      1.69       620     12.65
12/09 23:00      ----      1.70       628     12.57